createdAt,value
2023-05-16T00:00:06.777Z,1.73
2023-05-16T00:02:41.532Z,2.42
2023-05-16T00:05:15.733Z,1.98
2023-05-16T00:07:49.882Z,1.90
2023-05-16T00:10:24.103Z,2.15
2023-05-16T00:12:58.714Z,2.30
2023-05-16T00:15:34.727Z,1.88
2023-05-16T00:18:09.971Z,1.90
2023-05-16T00:20:44.153Z,1.90
2023-05-16T00:23:18.293Z,1.73
2023-05-16T00:25:52.399Z,1.70
2023-05-16T00:28:26.619Z,1.75
2023-05-16T00:31:02.132Z,1.67
2023-05-16T00:33:36.243Z,1.88
2023-05-16T00:36:11.394Z,1.50
2023-05-16T00:38:45.754Z,2.22
2023-05-16T00:41:19.933Z,1.70
2023-05-16T00:43:54.118Z,1.67
2023-05-16T00:46:29.670Z,1.42
2023-05-16T00:49:04.228Z,1.92
2023-05-16T00:51:40.598Z,2.00
2023-05-16T00:54:15.177Z,1.52
2023-05-16T00:56:49.457Z,1.95
2023-05-16T00:59:23.821Z,1.67
2023-05-16T01:01:59.541Z,1.65
2023-05-16T01:04:34.724Z,1.85
2023-05-16T01:07:08.888Z,1.85
2023-05-16T01:09:43.339Z,1.88
2023-05-16T01:12:26.923Z,2.08
2023-05-16T01:15:08.304Z,1.80
2023-05-16T01:18:02.225Z,2.50
2023-05-16T01:20:45.001Z,1.60
2023-05-16T01:23:35.620Z,1.63
2023-05-16T01:26:23.401Z,1.95
2023-05-16T01:28:57.877Z,2.28
2023-05-16T01:31:32.127Z,1.80
2023-05-16T01:34:06.258Z,2.08
2023-05-16T01:36:47.251Z,2.45
2023-05-16T01:39:28.345Z,1.92
2023-05-16T01:42:07.219Z,2.30
2023-05-16T01:44:47.058Z,1.60
2023-05-16T01:47:25.461Z,1.95
2023-05-16T01:50:06.598Z,2.00
2023-05-16T01:52:47.312Z,1.85
2023-05-16T01:55:31.323Z,1.70
2023-05-16T01:58:09.789Z,1.77
2023-05-16T02:00:45.048Z,1.90
2023-05-16T02:03:19.286Z,1.92
2023-05-16T02:05:53.643Z,1.80
2023-05-16T02:08:29.241Z,1.90
2023-05-16T02:11:03.358Z,1.83
2023-05-16T02:13:38.787Z,1.80
2023-05-16T02:16:12.984Z,2.20
2023-05-16T02:18:47.243Z,1.50
2023-05-16T02:21:21.349Z,1.75
2023-05-16T02:23:55.596Z,2.03
2023-05-16T02:26:29.761Z,2.45
2023-05-16T02:29:05.353Z,1.45
2023-05-16T02:31:39.628Z,1.63
2023-05-16T02:34:13.877Z,1.40
2023-05-16T02:36:47.925Z,2.13
2023-05-16T02:39:22.096Z,2.08
2023-05-16T02:41:56.140Z,2.10
2023-05-16T02:44:31.589Z,1.88
2023-05-16T02:47:06.216Z,1.80
2023-05-16T02:49:40.363Z,1.98
2023-05-16T02:52:14.451Z,1.67
2023-05-16T02:54:56.145Z,1.88
2023-05-16T02:57:42.719Z,2.13
2023-05-16T03:00:19.823Z,1.70
2023-05-16T03:02:54.002Z,2.08
2023-05-16T03:05:28.453Z,1.70
2023-05-16T03:08:03.120Z,2.15
2023-05-16T03:10:37.254Z,1.50
2023-05-16T03:13:11.376Z,2.03
2023-05-16T03:15:47.499Z,1.40
2023-05-16T03:18:21.625Z,1.63
2023-05-16T03:20:56.260Z,1.60
2023-05-16T03:23:30.615Z,2.13
2023-05-16T03:26:04.705Z,2.05
2023-05-16T03:28:38.935Z,1.98
2023-05-16T03:31:14.473Z,2.58
2023-05-16T03:33:48.655Z,1.90
2023-05-16T03:36:24.302Z,1.67
2023-05-16T03:38:58.457Z,2.08
2023-05-16T03:41:32.769Z,2.10
2023-05-16T03:44:06.829Z,1.65
2023-05-16T03:46:42.349Z,1.90
2023-05-16T03:49:16.406Z,1.83
2023-05-16T03:51:50.501Z,1.85
2023-05-16T03:54:24.811Z,1.48
2023-05-16T03:56:59.024Z,1.77
2023-05-16T03:59:34.561Z,1.58
2023-05-16T04:02:10.236Z,1.58
2023-05-16T04:04:44.417Z,2.00
2023-05-16T04:07:18.616Z,1.50
2023-05-16T04:09:53.125Z,1.95
2023-05-16T04:12:27.227Z,2.08
2023-05-16T04:15:01.365Z,2.30
2023-05-16T04:17:36.895Z,2.03
2023-05-16T04:20:12.502Z,1.92
2023-05-16T04:22:47.807Z,1.83
2023-05-16T04:25:21.937Z,1.90
2023-05-16T04:27:56.210Z,2.25
2023-05-16T04:30:30.315Z,1.63
2023-05-16T04:33:06.156Z,1.92
2023-05-16T04:35:40.419Z,2.08
2023-05-16T04:38:14.629Z,1.98
2023-05-16T04:40:50.768Z,1.92
2023-05-16T04:43:25.125Z,2.28
2023-05-16T04:45:59.643Z,2.10
2023-05-16T04:48:35.383Z,1.80
2023-05-16T04:51:09.497Z,2.10
2023-05-16T04:53:44.097Z,2.17
2023-05-16T04:56:18.202Z,2.08
2023-05-16T04:58:52.391Z,2.67
2023-05-16T05:01:26.566Z,2.30
2023-05-16T05:04:01.978Z,2.75
2023-05-16T05:06:36.169Z,2.03
2023-05-16T05:09:11.049Z,2.13
2023-05-16T05:11:45.343Z,2.50
2023-05-16T05:14:19.430Z,2.58
2023-05-16T05:16:53.511Z,2.50
2023-05-16T05:19:29.065Z,2.10
2023-05-16T05:22:03.176Z,2.08
2023-05-16T05:24:37.403Z,2.42
2023-05-16T05:27:11.523Z,2.25
2023-05-16T05:29:45.944Z,2.72
2023-05-16T05:32:19.984Z,3.13
2023-05-16T05:34:55.494Z,3.20
2023-05-16T05:37:30.103Z,2.47
2023-05-16T05:40:04.838Z,2.55
2023-05-16T05:42:38.947Z,2.88
2023-05-16T05:45:13.048Z,2.17
2023-05-16T05:47:47.152Z,2.90
2023-05-16T05:50:22.899Z,3.92
2023-05-16T05:52:57.025Z,3.70
2023-05-16T05:55:31.158Z,3.58
2023-05-16T05:58:07.218Z,4.47
2023-05-16T06:00:41.506Z,4.38
2023-05-16T06:03:16.609Z,4.05
2023-05-16T06:05:52.373Z,4.10
2023-05-16T06:08:26.467Z,5.75
2023-05-16T06:11:01.768Z,5.70
2023-05-16T06:13:36.281Z,7.20
2023-05-16T06:16:10.588Z,8.18
2023-05-16T06:18:45.893Z,8.90
2023-05-16T06:21:21.625Z,9.20
2023-05-16T06:23:55.992Z,9.40
2023-05-16T06:26:30.457Z,10.13
2023-05-16T06:29:05.026Z,11.35
2023-05-16T06:31:39.315Z,10.90
2023-05-16T06:34:13.709Z,11.25
2023-05-16T06:36:49.349Z,11.23
2023-05-16T06:39:23.631Z,11.93
2023-05-16T06:41:58.122Z,10.70
2023-05-16T06:44:32.564Z,10.63
2023-05-16T06:47:07.419Z,9.82
2023-05-16T06:49:41.956Z,9.82
2023-05-16T06:52:17.848Z,10.02
2023-05-16T06:54:52.191Z,10.88
2023-05-16T06:57:28.818Z,10.77
2023-05-16T07:00:03.046Z,9.52
2023-05-16T07:02:37.576Z,9.40
2023-05-16T07:05:11.816Z,9.30
2023-05-16T07:07:47.397Z,8.20
2023-05-16T07:10:22.269Z,8.35
2023-05-16T07:12:58.249Z,8.88
2023-05-16T07:15:32.698Z,9.00
2023-05-16T07:18:07.248Z,9.32
2023-05-16T07:20:41.419Z,9.05
2023-05-16T07:23:17.328Z,9.25
2023-05-16T07:25:52.202Z,7.45
2023-05-16T07:28:26.416Z,8.55
2023-05-16T07:31:00.759Z,8.32
2023-05-16T07:33:35.078Z,7.07
2023-05-16T07:36:16.904Z,8.07
2023-05-16T07:38:53.280Z,7.63
2023-05-16T07:41:27.548Z,8.15
2023-05-16T07:44:01.685Z,7.68
2023-05-16T07:46:36.251Z,7.78
2023-05-16T07:49:10.544Z,7.65
2023-05-16T07:51:44.891Z,7.75
2023-05-16T07:54:20.575Z,7.47
2023-05-16T07:56:54.831Z,7.45
2023-05-16T07:59:30.036Z,7.32
2023-05-16T08:02:04.746Z,7.28
2023-05-16T08:04:39.042Z,7.30
2023-05-16T08:07:13.196Z,6.88
2023-05-16T08:09:48.956Z,7.40
2023-05-16T08:12:23.197Z,6.25
2023-05-16T08:14:57.451Z,6.10
2023-05-16T08:17:31.751Z,5.78
2023-05-16T08:20:07.455Z,5.78
2023-05-16T08:22:41.662Z,5.85
2023-05-16T08:25:17.314Z,5.30
2023-05-16T08:27:51.831Z,5.60
2023-05-16T08:30:27.876Z,6.10
2023-05-16T08:33:05.126Z,6.70
2023-05-16T08:35:43.471Z,6.78
2023-05-16T08:38:17.663Z,5.65
2023-05-16T08:40:53.277Z,6.38
2023-05-16T08:43:27.538Z,5.50
2023-05-16T08:46:02.279Z,6.97
2023-05-16T08:48:37.839Z,5.30
2023-05-16T08:51:12.928Z,6.50
2023-05-16T08:53:57.360Z,6.13
2023-05-16T08:56:35.274Z,5.25
2023-05-16T08:59:09.867Z,5.07
2023-05-16T09:01:44.375Z,4.88
2023-05-16T09:04:18.708Z,5.38
2023-05-16T09:06:54.142Z,5.35
2023-05-16T09:09:28.560Z,5.28
2023-05-16T09:12:04.359Z,4.57
2023-05-16T09:14:39.129Z,5.00
2023-05-16T09:17:13.389Z,5.25
2023-05-16T09:19:48.949Z,5.35
2023-05-16T09:22:25.694Z,4.95
2023-05-16T09:25:02.040Z,4.28
2023-05-16T09:27:37.698Z,5.28
2023-05-16T09:30:15.852Z,4.25
2023-05-16T09:32:50.137Z,5.35
2023-05-16T09:35:39.810Z,4.97
2023-05-16T09:38:19.134Z,5.22
2023-05-16T09:40:53.347Z,4.38
2023-05-16T09:43:28.824Z,4.43
2023-05-16T09:46:03.635Z,4.90
2023-05-16T09:48:37.877Z,4.75
2023-05-16T09:51:13.959Z,5.28
2023-05-16T09:53:48.472Z,5.57
2023-05-16T09:56:22.865Z,5.65
2023-05-16T09:58:58.497Z,5.20
2023-05-16T10:01:33.291Z,5.45
2023-05-16T10:04:10.641Z,5.13
2023-05-16T10:06:47.044Z,5.32
2023-05-16T10:09:22.470Z,5.07
2023-05-16T10:11:57.869Z,5.32
2023-05-16T10:14:38.111Z,5.63
2023-05-16T10:17:15.914Z,5.80
2023-05-16T10:19:53.002Z,5.10
2023-05-16T10:22:28.489Z,5.45
2023-05-16T10:25:11.063Z,6.13
2023-05-16T10:27:46.066Z,5.20
2023-05-16T10:30:22.349Z,5.32
2023-05-16T10:32:57.767Z,5.53
2023-05-16T10:35:32.845Z,5.63
2023-05-16T10:38:08.245Z,5.32
2023-05-16T10:40:43.516Z,5.60
2023-05-16T10:43:26.740Z,5.55
2023-05-16T10:46:12.696Z,5.20
2023-05-16T10:48:47.948Z,6.72
2023-05-16T10:51:38.950Z,6.15
2023-05-16T10:54:15.397Z,6.90
2023-05-16T10:56:59.477Z,6.63
2023-05-16T10:59:45.066Z,6.45
2023-05-16T11:02:29.283Z,6.78
2023-05-16T11:05:04.286Z,7.25
2023-05-16T11:07:38.699Z,6.85
2023-05-16T11:10:17.708Z,6.53
2023-05-16T11:12:54.699Z,6.93
2023-05-16T11:15:32.802Z,7.53
2023-05-16T11:18:10.983Z,6.80
2023-05-16T11:20:45.506Z,5.97
2023-05-16T11:23:24.737Z,7.13
2023-05-16T11:26:00.713Z,7.32
2023-05-16T11:28:37.221Z,6.03
2023-05-16T11:31:11.419Z,6.45
2023-05-16T11:33:48.067Z,6.10
2023-05-16T11:36:23.308Z,6.47
2023-05-16T11:39:09.507Z,6.57
2023-05-16T11:41:43.834Z,6.55
2023-05-16T11:44:18.437Z,6.80
2023-05-16T11:46:52.816Z,6.30
2023-05-16T11:49:29.078Z,7.05
2023-05-16T11:52:03.648Z,7.20
2023-05-16T11:54:38.454Z,6.55
2023-05-16T11:57:12.925Z,6.30
2023-05-16T11:59:47.490Z,5.63
2023-05-16T12:02:22.324Z,6.05
2023-05-16T12:04:58.252Z,5.82
2023-05-16T12:07:32.446Z,5.82
2023-05-16T12:10:08.894Z,6.13
2023-05-16T12:12:46.708Z,7.13
2023-05-16T12:15:21.644Z,5.30
2023-05-16T12:17:56.969Z,4.05
2023-05-16T12:20:33.262Z,4.50
2023-05-16T12:23:12.740Z,5.10
2023-05-16T12:25:49.396Z,4.07
2023-05-16T12:28:23.590Z,4.65
2023-05-16T12:30:57.709Z,3.55
2023-05-16T12:33:32.047Z,4.35
2023-05-16T12:36:15.914Z,4.45
2023-05-16T12:38:50.253Z,4.20
2023-05-16T12:41:24.736Z,4.95
2023-05-16T12:44:10.399Z,4.35
2023-05-16T12:46:46.744Z,4.30
2023-05-16T12:49:23.953Z,3.90
2023-05-16T12:52:05.701Z,3.97
2023-05-16T12:54:39.941Z,4.43
2023-05-16T12:57:14.089Z,4.57
2023-05-16T12:59:48.239Z,4.10
2023-05-16T13:02:22.668Z,5.40
2023-05-16T13:04:57.679Z,4.30
2023-05-16T13:07:33.310Z,4.75
2023-05-16T13:10:10.204Z,4.68
2023-05-16T13:12:44.980Z,4.20
2023-05-16T13:15:19.263Z,4.55
2023-05-16T13:17:53.726Z,4.40
2023-05-16T13:20:29.243Z,4.20
2023-05-16T13:23:05.479Z,3.88
2023-05-16T13:25:39.629Z,3.40
2023-05-16T13:28:13.744Z,3.78
2023-05-16T13:30:47.842Z,4.05
2023-05-16T13:33:22.738Z,3.13
2023-05-16T13:35:57.384Z,3.13
2023-05-16T13:38:32.860Z,3.20
2023-05-16T13:41:07.047Z,2.47
2023-05-16T13:43:41.349Z,3.47
2023-05-16T13:46:15.675Z,2.83
2023-05-16T13:48:49.971Z,2.55
2023-05-16T13:51:24.183Z,2.60
2023-05-16T13:53:59.739Z,2.72
2023-05-16T13:56:33.881Z,2.45
2023-05-16T13:59:09.103Z,2.35
2023-05-16T14:01:45.082Z,2.00
2023-05-16T14:04:19.293Z,2.38
2023-05-16T14:06:54.563Z,2.08
2023-05-16T14:09:33.775Z,1.95
2023-05-16T14:12:08.969Z,2.00
2023-05-16T14:14:43.121Z,1.88
2023-05-16T14:17:17.252Z,2.10
2023-05-16T14:19:51.469Z,1.70
2023-05-16T14:22:25.709Z,1.92
2023-05-16T14:25:01.243Z,2.03
2023-05-16T14:27:35.655Z,2.05
2023-05-16T14:30:11.220Z,1.50
2023-05-16T14:32:45.470Z,1.45
2023-05-16T14:35:19.766Z,1.80
2023-05-16T14:37:54.120Z,1.80
2023-05-16T14:40:29.656Z,2.00
2023-05-16T14:43:04.999Z,1.95
2023-05-16T14:45:40.372Z,2.28
2023-05-16T14:48:14.573Z,1.60
2023-05-16T14:50:49.126Z,1.70
2023-05-16T14:53:23.276Z,1.60
2023-05-16T14:55:59.110Z,1.50
2023-05-16T14:58:33.307Z,1.30
2023-05-16T15:01:07.576Z,1.60
2023-05-16T15:06:18.907Z,1.80
2023-05-16T15:08:53.100Z,1.52
2023-05-16T15:11:29.896Z,1.40
2023-05-16T15:14:04.156Z,1.50
2023-05-16T15:16:38.802Z,1.25
2023-05-16T15:19:13.607Z,1.20
2023-05-16T15:21:48.056Z,1.38
2023-05-16T15:24:24.115Z,1.40
2023-05-16T15:26:59.866Z,1.17
2023-05-16T15:29:34.172Z,0.90
2023-05-16T15:32:11.680Z,1.30
2023-05-16T15:34:46.051Z,1.38
2023-05-16T15:37:23.236Z,1.20
2023-05-16T15:39:57.499Z,1.40
2023-05-16T15:42:33.237Z,0.93
2023-05-16T15:45:09.628Z,1.10
2023-05-16T15:47:44.050Z,1.08
2023-05-16T15:50:18.762Z,1.00
2023-05-16T15:52:52.986Z,1.42
2023-05-16T15:55:27.544Z,1.10
2023-05-16T15:58:04.000Z,0.98
2023-05-16T16:00:39.324Z,0.93
2023-05-16T16:03:14.048Z,1.13
2023-05-16T16:05:48.823Z,0.82
2023-05-16T16:08:25.920Z,1.10
2023-05-16T16:11:00.298Z,0.88
2023-05-16T16:13:36.139Z,0.80
2023-05-16T16:16:10.561Z,0.80
2023-05-16T16:18:45.454Z,1.02
2023-05-16T16:21:24.619Z,0.88
2023-05-16T16:23:58.951Z,0.90
2023-05-16T16:26:33.492Z,0.68
2023-05-16T16:29:09.158Z,0.68
2023-05-16T16:31:44.045Z,0.60
2023-05-16T16:34:19.469Z,0.90
2023-05-16T16:36:55.218Z,0.73
2023-05-16T16:39:32.214Z,0.50
2023-05-16T16:42:08.552Z,0.75
2023-05-16T16:44:44.422Z,0.70
2023-05-16T16:47:19.115Z,0.93
2023-05-16T16:49:53.759Z,0.77
2023-05-16T16:52:28.210Z,0.90
2023-05-16T16:55:02.702Z,1.10
2023-05-16T16:57:37.116Z,0.70
2023-05-16T17:00:14.390Z,0.70
2023-05-16T17:02:48.702Z,0.47
2023-05-16T17:05:24.205Z,0.70
2023-05-16T17:07:58.660Z,0.80
2023-05-16T17:10:32.975Z,0.68
2023-05-16T17:13:10.595Z,0.80
2023-05-16T17:15:47.389Z,0.95
2023-05-16T17:18:21.832Z,0.63
2023-05-16T17:20:56.212Z,0.95
2023-05-16T17:23:30.415Z,1.02
2023-05-16T17:26:04.941Z,0.80
2023-05-16T17:28:39.837Z,0.63
2023-05-16T17:31:16.443Z,0.80
2023-05-16T17:33:51.181Z,1.05
2023-05-16T17:36:28.122Z,0.60
2023-05-16T17:39:02.837Z,0.60
2023-05-16T17:41:37.109Z,0.85
2023-05-16T17:44:11.449Z,1.30
2023-05-16T17:46:47.157Z,0.60
2023-05-16T17:49:21.904Z,0.90
2023-05-16T17:51:59.106Z,0.93
2023-05-16T17:54:34.743Z,0.60
2023-05-16T17:57:08.972Z,0.68
2023-05-16T17:59:43.179Z,0.63
2023-05-16T18:02:18.921Z,0.50
2023-05-16T18:04:53.160Z,0.77
2023-05-16T18:07:28.616Z,0.70
2023-05-16T18:10:02.850Z,0.70
2023-05-16T18:12:38.872Z,1.23
2023-05-16T18:15:13.276Z,0.70
2023-05-16T18:17:49.554Z,1.15
2023-05-16T18:20:24.726Z,0.70
2023-05-16T18:22:59.918Z,0.75
2023-05-16T18:25:34.121Z,0.68
2023-05-16T18:28:08.682Z,1.00
2023-05-16T18:30:42.969Z,0.75
2023-05-16T18:33:18.808Z,0.80
2023-05-16T18:35:53.667Z,0.82
2023-05-16T18:38:33.172Z,0.70
2023-05-16T18:41:07.910Z,1.02
2023-05-16T18:43:42.152Z,0.90
2023-05-16T18:46:16.565Z,0.77
2023-05-16T18:48:52.885Z,0.85
2023-05-16T18:51:28.644Z,0.77
2023-05-16T18:54:03.976Z,1.10
2023-05-16T18:56:38.340Z,0.93
2023-05-16T18:59:12.710Z,0.75
2023-05-16T19:01:47.266Z,0.80
2023-05-16T19:04:23.355Z,0.70
2023-05-16T19:06:58.097Z,0.98
2023-05-16T19:09:32.793Z,0.60
2023-05-16T19:12:07.784Z,1.17
2023-05-16T19:14:42.036Z,0.85
2023-05-16T19:17:16.492Z,1.00
2023-05-16T19:19:52.199Z,0.70
2023-05-16T19:22:27.969Z,0.80
2023-05-16T19:25:02.232Z,0.70
2023-05-16T19:27:36.702Z,0.45
2023-05-16T19:30:11.890Z,0.70
2023-05-16T19:32:46.205Z,0.80
2023-05-16T19:35:22.364Z,0.70
2023-05-16T19:37:56.581Z,0.80
2023-05-16T19:40:31.469Z,1.00
2023-05-16T19:43:06.557Z,0.55
2023-05-16T19:45:40.866Z,1.00
2023-05-16T19:48:15.290Z,0.90
2023-05-16T19:50:51.074Z,0.77
2023-05-16T19:53:29.334Z,0.88
2023-05-16T19:56:04.509Z,0.90
2023-05-16T19:58:38.848Z,1.30
2023-05-16T20:01:13.283Z,0.80
2023-05-16T20:03:47.881Z,0.35
2023-05-16T20:06:23.640Z,0.55
2023-05-16T20:08:58.270Z,0.60
2023-05-16T20:11:32.883Z,0.52
2023-05-16T20:14:07.373Z,0.73
2023-05-16T20:16:41.686Z,0.85
2023-05-16T20:19:19.120Z,1.25
2023-05-16T20:21:54.923Z,0.60
2023-05-16T20:24:35.708Z,0.50
2023-05-16T20:27:10.968Z,0.60
2023-05-16T20:29:45.158Z,0.70
2023-05-16T20:32:19.481Z,0.90
2023-05-16T20:34:53.855Z,0.80
2023-05-16T20:37:30.382Z,0.77
2023-05-16T20:40:06.236Z,0.57
2023-05-16T20:42:40.804Z,0.60
2023-05-16T20:45:15.612Z,0.90
2023-05-16T20:47:51.093Z,0.50
2023-05-16T20:50:25.805Z,0.60
2023-05-16T20:53:01.669Z,0.50
2023-05-16T20:55:35.867Z,0.60
2023-05-16T20:58:10.225Z,0.57
2023-05-16T21:00:44.427Z,0.90
2023-05-16T21:03:19.057Z,0.65
2023-05-16T21:05:53.776Z,0.40
2023-05-16T21:08:31.853Z,0.88
2023-05-16T21:11:06.133Z,0.50
2023-05-16T21:13:40.324Z,0.75
2023-05-16T21:16:14.581Z,0.45
2023-05-16T21:18:49.439Z,0.70
2023-05-16T21:21:23.731Z,0.73
2023-05-16T21:23:59.502Z,0.63
2023-05-16T21:26:33.741Z,0.68
2023-05-16T21:29:07.952Z,0.50
2023-05-16T21:31:42.019Z,0.73
2023-05-16T21:34:16.296Z,1.10
2023-05-16T21:36:50.359Z,0.65
2023-05-16T21:39:25.855Z,1.02
2023-05-16T21:42:00.770Z,0.57
2023-05-16T21:44:34.858Z,0.60
2023-05-16T21:47:08.935Z,0.70
2023-05-16T21:49:43.097Z,0.57
2023-05-16T21:52:17.157Z,0.73
2023-05-16T21:54:52.655Z,1.10
2023-05-16T21:57:27.181Z,0.50
2023-05-16T22:00:02.402Z,0.80
2023-05-16T22:02:37.271Z,0.75
2023-05-16T22:05:12.070Z,0.47
2023-05-16T22:07:46.537Z,0.70
2023-05-16T22:10:22.578Z,0.50
2023-05-16T22:12:56.657Z,0.30
2023-05-16T22:15:31.196Z,0.52
2023-05-16T22:18:05.762Z,0.50
2023-05-16T22:20:39.917Z,0.45
2023-05-16T22:23:14.027Z,0.40
2023-05-16T22:25:49.544Z,0.40
2023-05-16T22:28:23.648Z,0.40
2023-05-16T22:30:57.946Z,0.40
2023-05-16T22:33:32.087Z,0.20
2023-05-16T22:36:07.053Z,0.43
2023-05-16T22:38:41.252Z,0.57
2023-05-16T22:41:16.701Z,0.30
2023-05-16T22:43:50.964Z,0.20
2023-05-16T22:46:25.277Z,0.47
2023-05-16T22:48:59.459Z,0.47
2023-05-16T22:51:33.633Z,0.35
2023-05-16T22:54:07.809Z,0.38
2023-05-16T22:56:43.393Z,0.30
2023-05-16T22:59:17.665Z,0.40
2023-05-16T23:01:51.753Z,0.47
2023-05-16T23:04:26.029Z,0.50
2023-05-16T23:07:00.164Z,0.50
2023-05-16T23:09:34.313Z,0.32
2023-05-16T23:12:10.337Z,0.40
2023-05-16T23:14:44.398Z,0.40
2023-05-16T23:17:18.542Z,0.38
2023-05-16T23:19:52.719Z,0.43
2023-05-16T23:22:26.890Z,0.50
2023-05-16T23:25:01.064Z,0.30
2023-05-16T23:27:36.919Z,0.50
2023-05-16T23:30:12.532Z,0.30
2023-05-16T23:32:46.796Z,0.30
2023-05-16T23:35:21.083Z,0.40
2023-05-16T23:37:55.221Z,0.30
2023-05-16T23:40:29.349Z,0.38
2023-05-16T23:43:04.951Z,0.43
2023-05-16T23:45:39.115Z,0.38
2023-05-16T23:48:13.286Z,0.60
2023-05-16T23:50:47.467Z,0.20
2023-05-16T23:53:22.097Z,0.40
2023-05-16T23:55:56.547Z,0.50
2023-05-16T23:58:32.043Z,0.30
